Time;durP1;ratioP1;P1;durP2;ratioP2;P2;SDS_P1;SDS_P2;PMS_P1;PMS_P2;Temp;Humidity;BMP_temperature;BMP_pressure;BME280_temperature;BME280_humidity;BME280_pressure;Samples;Min_cycle;Max_cycle;Signal;HPM_P1;HPM_P2
2022/05/24 00:01:26;;;;;;;2.95;1.40;;;;;;;;;;5072146;28;20036;-76
2022/05/24 00:03:52;;;;;;;2.38;1.20;;;;;;;;;;5053867;28;20522;-76
2022/05/24 00:06:17;;;;;;;2.13;1.38;;;;;;;;;;5072133;28;20037;-76
2022/05/24 00:08:43;;;;;;;2.58;1.45;;;;;;;;;;5037507;28;20028;-75
2022/05/24 00:11:08;;;;;;;1.90;1.40;;;;;;;;;;5053865;28;20036;-76
2022/05/24 00:13:34;;;;;;;3.42;1.40;;;;;;;;;;5054326;28;20029;-76
2022/05/24 00:15:59;;;;;;;1.98;1.20;;;;;;;;;;5037429;28;20055;-75
2022/05/24 00:18:28;;;;;;;1.95;1.70;;;;;;;;;;5070938;28;20028;-76
2022/05/24 00:20:56;;;;;;;1.40;1.10;;;;;;;;;;5072129;28;20016;-75
2022/05/24 00:23:23;;;;;;;1.35;1.15;;;;;;;;;;5053709;28;20102;-75
2022/05/24 00:25:52;;;;;;;4.22;1.60;;;;;;;;;;5053987;28;20029;-75
2022/05/24 00:28:19;;;;;;;1.95;1.60;;;;;;;;;;5054233;28;20024;-75
2022/05/24 00:30:46;;;;;;;2.65;1.45;;;;;;;;;;5071641;28;20042;-75
2022/05/24 00:33:12;;;;;;;3.15;1.73;;;;;;;;;;5037042;28;20450;-75
2022/05/24 00:35:38;;;;;;;1.40;1.30;;;;;;;;;;5071606;28;20036;-75
2022/05/24 00:38:04;;;;;;;1.95;1.30;;;;;;;;;;5053583;28;20066;-75
2022/05/24 00:40:44;;;;;;;2.42;1.60;;;;;;;;;;5053407;28;20630;-75
2022/05/24 00:43:25;;;;;;;1.33;1.23;;;;;;;;;;5053382;28;20025;-75
2022/05/24 00:45:52;;;;;;;1.50;1.38;;;;;;;;;;5071573;28;20016;-75
2022/05/24 00:48:39;;;;;;;3.10;1.30;;;;;;;;;;5074665;28;20035;-76
2022/05/24 00:51:10;;;;;;;3.38;1.30;;;;;;;;;;5040502;28;20060;-75
2022/05/24 00:53:46;;;;;;;1.80;1.10;;;;;;;;;;5040895;28;20037;-76
2022/05/24 00:56:16;;;;;;;1.17;1.05;;;;;;;;;;5073837;28;20123;-75
2022/05/24 00:59:00;;;;;;;2.30;1.30;;;;;;;;;;5057420;28;20020;-76
2022/05/24 01:01:33;;;;;;;1.70;1.30;;;;;;;;;;5057324;28;20052;-75
2022/05/24 01:03:59;;;;;;;1.90;1.67;;;;;;;;;;5057378;28;20036;-75
2022/05/24 01:06:24;;;;;;;1.17;1.05;;;;;;;;;;5073791;28;20086;-75
2022/05/24 01:08:51;;;;;;;3.03;1.20;;;;;;;;;;5075123;28;20044;-75
2022/05/24 01:11:16;;;;;;;1.45;1.10;;;;;;;;;;5040315;28;20112;-75
2022/05/24 01:13:42;;;;;;;1.63;1.20;;;;;;;;;;5040187;28;20127;-75
2022/05/24 01:16:08;;;;;;;1.95;1.20;;;;;;;;;;5056855;28;20032;-75
2022/05/24 01:18:33;;;;;;;1.73;1.30;;;;;;;;;;5056619;28;20030;-75
2022/05/24 01:21:03;;;;;;;2.35;1.23;;;;;;;;;;5039987;28;20086;-75
2022/05/24 01:23:56;;;;;;;2.22;1.30;;;;;;;;;;5056767;28;20028;-75
2022/05/24 01:26:45;;;;;;;1.52;1.10;;;;;;;;;;5056596;28;20023;-75
2022/05/24 01:29:10;;;;;;;1.88;1.35;;;;;;;;;;5056744;28;20447;-75
2022/05/24 01:37:05;;;;;;;1.40;1.30;;;;;;;;;;5075126;28;20395;-75
2022/05/24 01:39:31;;;;;;;2.30;1.40;;;;;;;;;;5056419;28;20052;-75
2022/05/24 01:41:58;;;;;;;2.22;1.50;;;;;;;;;;5072862;28;20078;-75
2022/05/24 01:44:38;;;;;;;1.38;1.27;;;;;;;;;;5056658;28;20039;-75
2022/05/24 01:47:03;;;;;;;2.10;1.30;;;;;;;;;;5039855;28;20024;-76
2022/05/24 01:49:34;;;;;;;1.73;1.40;;;;;;;;;;5074382;28;20379;-76
2022/05/24 01:52:14;;;;;;;1.60;1.30;;;;;;;;;;5056405;28;20056;-75
2022/05/24 01:54:45;;;;;;;1.55;1.45;;;;;;;;;;5074366;28;20024;-75
2022/05/24 01:57:20;;;;;;;1.75;1.45;;;;;;;;;;5040031;28;20021;-75
2022/05/24 01:59:47;;;;;;;2.05;1.48;;;;;;;;;;5039122;28;20028;-75
2022/05/24 02:02:12;;;;;;;1.33;1.23;;;;;;;;;;5055958;28;20016;-75
2022/05/24 02:04:38;;;;;;;1.88;1.60;;;;;;;;;;5039336;28;20420;-75
2022/05/24 02:07:15;;;;;;;2.85;1.45;;;;;;;;;;5073722;28;20060;-76
2022/05/24 02:09:44;;;;;;;2.35;1.70;;;;;;;;;;5055773;28;20032;-76
2022/05/24 02:12:17;;;;;;;1.58;1.35;;;;;;;;;;5038975;28;20085;-75
2022/05/24 02:14:54;;;;;;;2.60;1.75;;;;;;;;;;5073870;28;20423;-76
2022/05/24 02:17:23;;;;;;;2.28;1.25;;;;;;;;;;5073666;28;20032;-76
2022/05/24 02:19:53;;;;;;;2.45;1.63;;;;;;;;;;5055913;28;20063;-76
2022/05/24 02:22:22;;;;;;;6.05;1.65;;;;;;;;;;5055619;28;20145;-76
2022/05/24 02:25:00;;;;;;;2.83;1.75;;;;;;;;;;5055717;28;20455;-76
2022/05/24 02:27:26;;;;;;;2.67;1.65;;;;;;;;;;5073496;28;20027;-76
2022/05/24 02:29:52;;;;;;;2.90;1.70;;;;;;;;;;5055301;28;20516;-76
2022/05/24 02:32:19;;;;;;;2.63;1.60;;;;;;;;;;5038794;28;20041;-77
2022/05/24 02:34:44;;;;;;;2.30;1.75;;;;;;;;;;5073290;28;20159;-76
2022/05/24 02:37:09;;;;;;;2.03;1.50;;;;;;;;;;5055828;28;20115;-76
2022/05/24 02:41:28;;;;;;;2.42;1.40;;;;;;;;;;5073172;28;20068;-77
2022/05/24 02:42:20;;;;;;;2.28;1.60;;;;;;;;;;5073077;28;20432;-76
2022/05/24 02:44:46;;;;;;;2.55;1.38;;;;;;;;;;5055219;28;20051;-76
2022/05/24 02:47:11;;;;;;;3.65;1.65;;;;;;;;;;5055324;28;20121;-78
2022/05/24 02:49:36;;;;;;;2.22;1.40;;;;;;;;;;5055218;28;20032;-76
2022/05/24 02:52:02;;;;;;;4.32;1.48;;;;;;;;;;5055197;28;20045;-76
2022/05/24 02:54:27;;;;;;;4.22;1.67;;;;;;;;;;5073133;28;20039;-76
2022/05/24 02:56:53;;;;;;;1.75;1.40;;;;;;;;;;5038561;28;20066;-75
2022/05/24 02:59:18;;;;;;;3.55;1.50;;;;;;;;;;5055077;28;20481;-75
2022/05/24 03:01:43;;;;;;;2.45;1.52;;;;;;;;;;5073326;28;20330;-75
2022/05/24 03:04:09;;;;;;;1.92;1.40;;;;;;;;;;5055044;28;20458;-75
2022/05/24 03:09:33;;;;;;;3.10;1.60;;;;;;;;;;5054947;28;20032;-75
2022/05/24 03:09:35;;;;;;;2.55;1.77;;;;;;;;;;5072805;28;20100;-76
2022/05/24 03:14:50;;;;;;;1.50;1.40;;;;;;;;;;5058047;28;20120;-75
2022/05/24 03:17:16;;;;;;;5.00;1.60;;;;;;;;;;5072778;28;20021;-75
2022/05/24 03:19:42;;;;;;;3.72;1.90;;;;;;;;;;5038029;28;20419;-75
2022/05/24 03:22:09;;;;;;;20.40;1.83;;;;;;;;;;5037813;28;20017;-75
2022/05/24 03:24:35;;;;;;;2.13;1.45;;;;;;;;;;5054666;28;20108;-75
2022/05/24 03:27:05;;;;;;;2.22;1.70;;;;;;;;;;5038003;28;20052;-75
2022/05/24 03:29:31;;;;;;;2.83;1.70;;;;;;;;;;5055181;28;20444;-75
2022/05/24 03:31:56;;;;;;;2.67;1.75;;;;;;;;;;5072022;28;20057;-75
2022/05/24 03:34:22;;;;;;;3.65;1.30;;;;;;;;;;5072341;28;20036;-75
2022/05/24 03:36:47;;;;;;;2.13;1.30;;;;;;;;;;5054131;28;20113;-75
2022/05/24 03:39:12;;;;;;;3.00;1.60;;;;;;;;;;5021146;28;20068;-75
2022/05/24 03:41:40;;;;;;;4.28;1.60;;;;;;;;;;5072075;28;20028;-76
2022/05/24 03:44:05;;;;;;;2.95;1.30;;;;;;;;;;5072147;28;20151;-75
2022/05/24 03:46:32;;;;;;;1.88;1.42;;;;;;;;;;5072023;28;20052;-75
2022/05/24 03:48:57;;;;;;;2.70;1.63;;;;;;;;;;5037185;28;20032;-75
2022/05/24 03:51:22;;;;;;;2.95;1.50;;;;;;;;;;5071925;28;20037;-76
2022/05/24 03:53:48;;;;;;;3.45;1.58;;;;;;;;;;5071914;28;20028;-75
2022/05/24 03:56:13;;;;;;;4.53;1.67;;;;;;;;;;5070294;28;20025;-76
2022/05/24 03:58:39;;;;;;;2.97;1.75;;;;;;;;;;5072224;28;20111;-76
2022/05/24 04:01:04;;;;;;;2.50;1.40;;;;;;;;;;5053920;28;20017;-76
2022/05/24 04:03:29;;;;;;;2.28;1.33;;;;;;;;;;5053948;28;20060;-76
2022/05/24 04:05:55;;;;;;;2.25;1.40;;;;;;;;;;5053471;28;20040;-76
2022/05/24 04:08:24;;;;;;;2.53;1.55;;;;;;;;;;5053841;28;20517;-75
2022/05/24 04:10:50;;;;;;;2.25;1.55;;;;;;;;;;5054333;28;20035;-76
2022/05/24 04:13:15;;;;;;;3.92;1.90;;;;;;;;;;5054110;28;20032;-75
2022/05/24 04:15:40;;;;;;;6.03;1.60;;;;;;;;;;5072207;28;20097;-75
2022/05/24 04:18:06;;;;;;;2.33;1.60;;;;;;;;;;5020468;28;20437;-75
2022/05/24 04:20:32;;;;;;;3.50;1.88;;;;;;;;;;5053504;28;20040;-75
2022/05/24 04:22:57;;;;;;;6.63;1.60;;;;;;;;;;5056542;28;20443;-75
2022/05/24 04:25:25;;;;;;;3.15;2.00;;;;;;;;;;5075955;28;20032;-74
2022/05/24 04:27:50;;;;;;;2.95;1.70;;;;;;;;;;5058015;28;20028;-76
2022/05/24 04:30:16;;;;;;;2.65;1.48;;;;;;;;;;5075373;28;20032;-76
2022/05/24 04:32:41;;;;;;;3.63;1.60;;;;;;;;;;5057684;28;20159;-77
2022/05/24 04:35:07;;;;;;;5.68;1.80;;;;;;;;;;5057557;28;20107;-77
2022/05/24 04:37:32;;;;;;;5.28;2.25;;;;;;;;;;5057753;28;20343;-76
2022/05/24 04:39:58;;;;;;;3.15;1.70;;;;;;;;;;5057334;28;20060;-76
2022/05/24 04:42:23;;;;;;;6.70;1.77;;;;;;;;;;5075542;28;20028;-76
2022/05/24 04:44:50;;;;;;;3.95;1.70;;;;;;;;;;5057686;28;20020;-76
2022/05/24 04:47:16;;;;;;;5.20;1.35;;;;;;;;;;5075735;28;20028;-75
2022/05/24 04:49:50;;;;;;;3.10;1.60;;;;;;;;;;5057814;28;20028;-75
2022/05/24 04:52:17;;;;;;;4.80;1.92;;;;;;;;;;5057032;28;20017;-75
2022/05/24 04:54:44;;;;;;;7.18;1.80;;;;;;;;;;5057199;28;20036;-74
2022/05/24 04:57:09;;;;;;;12.40;2.90;;;;;;;;;;5057977;28;20025;-77
2022/05/24 04:59:35;;;;;;;8.48;2.53;;;;;;;;;;5056546;28;20024;-77
2022/05/24 05:02:01;;;;;;;16.92;4.35;;;;;;;;;;5074425;28;20028;-77
2022/05/24 05:04:27;;;;;;;21.00;5.47;;;;;;;;;;5074276;28;20120;-77
2022/05/24 05:06:52;;;;;;;21.13;5.45;;;;;;;;;;5056838;28;20177;-77
2022/05/24 05:09:18;;;;;;;10.13;3.90;;;;;;;;;;5056987;28;20173;-77
2022/05/24 05:11:44;;;;;;;13.93;4.10;;;;;;;;;;5056839;28;20059;-76
2022/05/24 05:14:10;;;;;;;13.80;3.55;;;;;;;;;;5040262;28;20032;-76
2022/05/24 05:16:36;;;;;;;9.13;3.17;;;;;;;;;;5056724;28;20036;-77
2022/05/24 05:19:09;;;;;;;8.52;3.10;;;;;;;;;;5056873;28;20031;-76
2022/05/24 05:21:36;;;;;;;7.70;2.47;;;;;;;;;;5075277;28;20025;-77
2022/05/24 05:24:03;;;;;;;7.20;2.67;;;;;;;;;;5058006;28;20039;-76
2022/05/24 05:26:29;;;;;;;10.75;3.40;;;;;;;;;;5058101;28;20021;-77
2022/05/24 05:28:55;;;;;;;8.43;2.83;;;;;;;;;;5075124;28;20025;-76
2022/05/24 05:31:25;;;;;;;7.40;2.60;;;;;;;;;;5074742;28;20036;-77
2022/05/24 05:33:50;;;;;;;7.63;2.70;;;;;;;;;;5056322;28;20422;-76
2022/05/24 05:36:17;;;;;;;6.95;2.53;;;;;;;;;;5074420;28;20056;-76
2022/05/24 05:38:46;;;;;;;5.40;2.40;;;;;;;;;;5056980;28;20117;-77
2022/05/24 05:41:30;;;;;;;6.70;2.70;;;;;;;;;;5057327;28;20052;-77
2022/05/24 05:43:57;;;;;;;7.93;2.50;;;;;;;;;;5040181;28;20028;-76
2022/05/24 05:46:23;;;;;;;4.70;2.08;;;;;;;;;;5056871;28;20028;-76
2022/05/24 05:48:48;;;;;;;8.88;2.17;;;;;;;;;;5073809;28;20100;-76
2022/05/24 05:51:15;;;;;;;6.93;2.20;;;;;;;;;;5074237;28;20028;-76
2022/05/24 05:53:41;;;;;;;8.90;2.45;;;;;;;;;;5056334;28;20024;-76
2022/05/24 05:56:21;;;;;;;6.30;2.03;;;;;;;;;;5039936;28;20055;-75
2022/05/24 05:58:48;;;;;;;7.80;2.30;;;;;;;;;;5056532;28;20017;-76
2022/05/24 06:01:19;;;;;;;7.20;2.38;;;;;;;;;;5056330;28;20024;-76
2022/05/24 06:03:45;;;;;;;5.60;2.20;;;;;;;;;;5056313;28;20107;-76
2022/05/24 06:06:16;;;;;;;6.93;2.50;;;;;;;;;;5039482;28;20052;-76
2022/05/24 06:08:41;;;;;;;4.63;1.80;;;;;;;;;;5039390;28;20427;-76
2022/05/24 06:11:07;;;;;;;4.30;2.30;;;;;;;;;;5073788;28;20036;-76
2022/05/24 06:13:33;;;;;;;5.78;2.30;;;;;;;;;;5073668;28;20054;-76
2022/05/24 06:15:59;;;;;;;4.82;2.35;;;;;;;;;;5074007;28;20035;-76
2022/05/24 06:18:24;;;;;;;4.40;2.00;;;;;;;;;;5073845;28;20040;-76
2022/05/24 06:20:50;;;;;;;4.57;2.10;;;;;;;;;;5074324;28;20035;-76
2022/05/24 06:23:15;;;;;;;4.13;1.98;;;;;;;;;;5039742;28;20475;-76
2022/05/24 06:25:42;;;;;;;3.92;1.90;;;;;;;;;;5074282;28;20028;-75
2022/05/24 06:28:11;;;;;;;3.15;1.80;;;;;;;;;;5055942;28;20476;-76
2022/05/24 06:30:37;;;;;;;3.72;1.65;;;;;;;;;;5073562;28;20032;-76
2022/05/24 06:33:02;;;;;;;4.35;1.92;;;;;;;;;;5055215;28;20119;-76
2022/05/24 06:35:27;;;;;;;4.18;1.70;;;;;;;;;;5055540;28;20386;-76
2022/05/24 06:37:54;;;;;;;3.63;1.70;;;;;;;;;;5055268;28;20032;-76
2022/05/24 06:40:20;;;;;;;5.85;1.80;;;;;;;;;;5073257;28;20049;-76
2022/05/24 06:42:45;;;;;;;3.38;1.60;;;;;;;;;;5055203;28;20036;-76
2022/05/24 06:45:11;;;;;;;3.47;1.38;;;;;;;;;;5055073;28;20063;-76
2022/05/24 06:47:37;;;;;;;2.78;1.65;;;;;;;;;;5073213;28;20052;-76
2022/05/24 06:50:03;;;;;;;3.08;1.50;;;;;;;;;;5072990;28;20036;-76
2022/05/24 06:52:29;;;;;;;2.85;1.50;;;;;;;;;;5055176;28;20047;-76
2022/05/24 06:54:54;;;;;;;3.90;1.55;;;;;;;;;;5072844;28;20391;-76
2022/05/24 06:57:20;;;;;;;3.03;1.27;;;;;;;;;;5073153;28;20358;-76
2022/05/24 07:02:30;;;;;;;3.22;1.58;;;;;;;;;;5073308;28;20027;-77
2022/05/24 07:05:07;;;;;;;7.35;1.60;;;;;;;;;;5038205;28;20036;-77
2022/05/24 07:07:33;;;;;;;1.55;1.20;;;;;;;;;;5073165;28;20173;-77
2022/05/24 07:10:00;;;;;;;2.58;1.63;;;;;;;;;;5055001;28;20450;-77
2022/05/24 07:12:26;;;;;;;3.30;1.30;;;;;;;;;;5054373;28;20021;-77
2022/05/24 07:14:51;;;;;;;2.47;1.30;;;;;;;;;;5054594;28;20027;-77
2022/05/24 07:17:17;;;;;;;2.10;1.27;;;;;;;;;;5038049;28;20028;-77
2022/05/24 07:19:43;;;;;;;2.63;1.40;;;;;;;;;;5072664;28;20043;-77
2022/05/24 07:22:09;;;;;;;4.18;1.60;;;;;;;;;;5054547;28;20020;-77
2022/05/24 07:24:35;;;;;;;3.08;1.55;;;;;;;;;;5072694;28;20110;-77
2022/05/24 07:27:01;;;;;;;2.53;1.30;;;;;;;;;;5054852;28;20142;-77
2022/05/24 07:29:26;;;;;;;3.20;1.67;;;;;;;;;;5037716;28;20025;-77
2022/05/24 07:31:52;;;;;;;1.40;1.10;;;;;;;;;;5054426;28;20032;-77
2022/05/24 07:34:18;;;;;;;2.13;1.42;;;;;;;;;;5072209;28;20056;-77
2022/05/24 07:36:43;;;;;;;2.78;1.10;;;;;;;;;;5088161;28;20383;-77
2022/05/24 07:39:09;;;;;;;2.10;1.38;;;;;;;;;;5070180;28;20053;-77
2022/05/24 07:47:09;;;;;;;3.55;1.40;;;;;;;;;;5057113;28;20054;-78
2022/05/24 07:49:35;;;;;;;4.65;1.48;;;;;;;;;;5072004;28;20490;-78
2022/05/24 07:52:01;;;;;;;6.28;1.70;;;;;;;;;;5054135;28;20056;-76
2022/05/24 07:54:27;;;;;;;2.63;1.40;;;;;;;;;;5037650;28;20029;-77
2022/05/24 07:56:52;;;;;;;9.00;1.48;;;;;;;;;;5036716;28;20113;-76
2022/05/24 07:59:17;;;;;;;4.03;1.33;;;;;;;;;;5037597;28;20155;-75
2022/05/24 08:01:43;;;;;;;3.65;2.05;;;;;;;;;;5053859;28;20024;-75
2022/05/24 08:04:09;;;;;;;4.00;1.48;;;;;;;;;;5071782;28;20051;-77
2022/05/24 08:06:35;;;;;;;11.18;1.73;;;;;;;;;;5054125;28;20033;-76
2022/05/24 08:09:00;;;;;;;4.60;1.35;;;;;;;;;;5070415;28;20043;-76
2022/05/24 08:11:26;;;;;;;4.18;1.40;;;;;;;;;;5037500;28;20028;-76
2022/05/24 08:13:51;;;;;;;4.35;1.23;;;;;;;;;;5087833;28;20047;-77
2022/05/24 08:16:17;;;;;;;5.45;1.92;;;;;;;;;;5072152;28;20131;-77
2022/05/24 08:18:44;;;;;;;3.10;1.50;;;;;;;;;;5037127;28;20085;-77
2022/05/24 08:21:09;;;;;;;7.05;1.60;;;;;;;;;;5053779;28;20028;-77
2022/05/24 08:23:35;;;;;;;29.30;2.30;;;;;;;;;;5077969;28;20036;-77
2022/05/24 08:26:00;;;;;;;2.80;1.23;;;;;;;;;;5073219;28;20024;-77
2022/05/24 08:28:26;;;;;;;2.80;1.20;;;;;;;;;;5056822;28;20040;-76
2022/05/24 08:30:53;;;;;;;3.60;1.45;;;;;;;;;;5073698;28;20036;-76
2022/05/24 08:33:20;;;;;;;4.05;1.25;;;;;;;;;;5073984;28;20040;-77
2022/05/24 08:35:46;;;;;;;1.38;1.08;;;;;;;;;;5056934;28;20396;-77
2022/05/24 08:38:12;;;;;;;5.32;1.85;;;;;;;;;;5056793;28;20090;-78
2022/05/24 08:40:40;;;;;;;4.60;1.10;;;;;;;;;;5038006;28;20532;-76
2022/05/24 08:43:25;;;;;;;4.00;1.20;;;;;;;;;;5053355;28;20025;-76
2022/05/24 08:48:51;;;;;;;2.95;1.13;;;;;;;;;;5056416;28;20119;-77
2022/05/24 08:51:28;;;;;;;3.72;1.58;;;;;;;;;;5053707;28;20099;-78
2022/05/24 08:53:58;;;;;;;3.90;1.08;;;;;;;;;;5053477;28;20029;-77
2022/05/24 08:56:32;;;;;;;3.83;1.00;;;;;;;;;;5036643;28;20169;-78
2022/05/24 08:59:08;;;;;;;4.57;1.55;;;;;;;;;;5036546;28;20039;-77
2022/05/24 09:01:34;;;;;;;3.05;1.10;;;;;;;;;;5036441;28;20123;-76
2022/05/24 09:04:05;;;;;;;4.50;1.30;;;;;;;;;;5053046;28;20116;-76
2022/05/24 09:06:36;;;;;;;8.25;1.52;;;;;;;;;;5071322;28;20028;-76
2022/05/24 09:09:23;;;;;;;2.47;1.02;;;;;;;;;;5074169;28;20036;-77
2022/05/24 09:11:49;;;;;;;2.22;1.20;;;;;;;;;;5056835;28;20383;-78
2022/05/24 09:14:57;;;;;;;3.13;1.23;;;;;;;;;;5074744;28;20020;-78
2022/05/24 09:17:53;;;;;;;1.88;0.90;;;;;;;;;;5033262;28;20068;-77
2022/05/24 09:20:24;;;;;;;2.10;1.13;;;;;;;;;;5074578;28;20100;-78
2022/05/24 09:22:50;;;;;;;2.40;0.93;;;;;;;;;;5056380;28;20044;-77
2022/05/24 09:25:16;;;;;;;4.05;1.20;;;;;;;;;;5056910;28;20031;-77
2022/05/24 09:27:51;;;;;;;2.25;0.90;;;;;;;;;;5056596;28;20463;-77
2022/05/24 09:30:29;;;;;;;1.42;0.82;;;;;;;;;;5039845;28;20029;-76
2022/05/24 09:33:20;;;;;;;1.75;1.05;;;;;;;;;;5074091;28;20419;-76
2022/05/24 09:35:48;;;;;;;3.08;0.90;;;;;;;;;;5074375;28;20043;-75
2022/05/24 09:38:17;;;;;;;0.90;0.80;;;;;;;;;;5056502;28;20021;-75
2022/05/24 09:40:52;;;;;;;1.08;0.80;;;;;;;;;;5055673;28;20052;-75
2022/05/24 09:43:23;;;;;;;1.13;0.80;;;;;;;;;;5073954;28;20110;-75
2022/05/24 09:45:57;;;;;;;2.92;0.65;;;;;;;;;;5055721;28;20101;-75
2022/05/24 09:48:26;;;;;;;1.17;0.73;;;;;;;;;;5055766;28;20032;-75
2022/05/24 09:50:53;;;;;;;1.27;0.77;;;;;;;;;;5055751;28;20031;-75
2022/05/24 09:53:22;;;;;;;0.98;0.63;;;;;;;;;;5055712;28;20024;-75
2022/05/24 09:55:55;;;;;;;1.23;0.80;;;;;;;;;;5055958;28;20116;-76
2022/05/24 09:58:28;;;;;;;2.10;0.80;;;;;;;;;;5039429;28;20107;-76
2022/05/24 10:01:27;;;;;;;1.05;0.75;;;;;;;;;;5073675;28;20028;-76
2022/05/24 10:03:53;;;;;;;3.08;0.60;;;;;;;;;;5073101;28;20099;-76
2022/05/24 10:06:28;;;;;;;3.40;0.88;;;;;;;;;;5055314;28;20490;-76
2022/05/24 10:08:59;;;;;;;0.60;0.60;;;;;;;;;;5055542;28;20039;-76
2022/05/24 10:11:41;;;;;;;1.45;0.73;;;;;;;;;;5055164;28;20021;-76
2022/05/24 10:14:15;;;;;;;1.17;0.70;;;;;;;;;;5073261;28;20084;-76
2022/05/24 10:17:13;;;;;;;1.08;0.45;;;;;;;;;;5054993;28;20082;-76
2022/05/24 10:20:14;;;;;;;0.63;0.63;;;;;;;;;;5038199;28;20028;-76
2022/05/24 10:23:06;;;;;;;1.15;0.43;;;;;;;;;;5071940;28;20027;-76
2022/05/24 10:26:00;;;;;;;0.70;0.70;;;;;;;;;;5055072;28;20021;-76
2022/05/24 10:28:48;;;;;;;0.97;0.60;;;;;;;;;;5055467;28;20104;-76
2022/05/24 10:31:32;;;;;;;0.77;0.50;;;;;;;;;;5054942;28;20028;-76
2022/05/24 10:40:04;;;;;;;1.20;0.90;;;;;;;;;;5057486;28;20070;-76
2022/05/24 10:42:35;;;;;;;2.17;0.75;;;;;;;;;;5073210;28;20151;-76
2022/05/24 10:45:15;;;;;;;0.52;0.52;;;;;;;;;;5055840;28;20463;-76
2022/05/24 10:47:49;;;;;;;2.55;0.50;;;;;;;;;;5055279;28;20327;-76
2022/05/24 10:50:36;;;;;;;4.22;0.80;;;;;;;;;;5038078;28;20091;-76
2022/05/24 10:53:04;;;;;;;4.57;1.15;;;;;;;;;;5055073;28;20028;-76
2022/05/24 10:55:37;;;;;;;1.50;0.85;;;;;;;;;;5073711;28;20024;-76
2022/05/24 10:58:16;;;;;;;;;;;;;;;;;;5056431;28;20024;-76
2022/05/24 11:00:56;;;;;;;1.33;0.60;;;;;;;;;;5055204;28;19916;-76
2022/05/24 11:03:31;;;;;;;2.08;1.05;;;;;;;;;;5037999;28;20043;-77
2022/05/24 11:06:04;;;;;;;0.73;0.40;;;;;;;;;;5037633;28;20039;-77
2022/05/24 11:08:33;;;;;;;0.60;0.50;;;;;;;;;;5054417;28;20028;-76
2022/05/24 11:11:20;;;;;;;1.63;0.90;;;;;;;;;;5054197;28;20261;-76
2022/05/24 11:13:59;;;;;;;0.50;0.50;;;;;;;;;;5054022;28;20479;-76
2022/05/24 11:16:41;;;;;;;2.92;0.68;;;;;;;;;;5036872;28;20060;-78
2022/05/24 11:19:09;;;;;;;1.58;0.80;;;;;;;;;;5036908;28;20036;-78
2022/05/24 11:21:40;;;;;;;7.82;2.10;;;;;;;;;;5053735;28;20020;-77
2022/05/24 11:24:14;;;;;;;7.38;2.33;;;;;;;;;;5053817;28;20089;-76
2022/05/24 11:26:48;;;;;;;6.80;1.70;;;;;;;;;;5053883;28;20498;-76
2022/05/24 11:29:30;;;;;;;5.82;1.63;;;;;;;;;;5053522;28;20124;-76
2022/05/24 11:32:06;;;;;;;2.92;1.50;;;;;;;;;;5052460;28;20391;-76
2022/05/24 11:34:56;;;;;;;3.25;1.20;;;;;;;;;;5053697;28;20123;-77
2022/05/24 11:37:27;;;;;;;5.18;1.20;;;;;;;;;;5053507;28;20526;-77
2022/05/24 11:39:53;;;;;;;4.45;0.90;;;;;;;;;;5052810;28;20127;-77
2022/05/24 11:42:43;;;;;;;7.47;1.20;;;;;;;;;;5053246;28;20116;-77
2022/05/24 11:45:34;;;;;;;3.78;1.20;;;;;;;;;;5053400;28;20024;-76
2022/05/24 11:48:06;;;;;;;2.60;1.00;;;;;;;;;;5071698;28;20355;-76
2022/05/24 11:50:31;;;;;;;2.30;1.00;;;;;;;;;;5053146;28;20382;-76
2022/05/24 11:53:12;;;;;;;5.10;0.90;;;;;;;;;;5053182;28;20052;-76
2022/05/24 11:55:48;;;;;;;1.95;0.70;;;;;;;;;;5071615;28;20020;-76
2022/05/24 11:58:19;;;;;;;3.47;1.08;;;;;;;;;;5053496;28;20027;-76
2022/05/24 12:01:03;;;;;;;2.40;0.80;;;;;;;;;;5071357;28;20052;-76
2022/05/24 12:09:17;;;;;;;1.25;0.80;;;;;;;;;;5056348;28;20054;-75
2022/05/24 12:11:43;;;;;;;2.05;0.65;;;;;;;;;;5052951;28;20040;-75
2022/05/24 12:14:16;;;;;;;1.60;0.80;;;;;;;;;;5053351;28;20043;-75
2022/05/24 12:16:53;;;;;;;2.67;0.80;;;;;;;;;;5071523;28;20024;-75
2022/05/24 12:19:42;;;;;;;1.15;0.70;;;;;;;;;;5071462;28;20024;-77
2022/05/24 12:22:54;;;;;;;4.13;0.88;;;;;;;;;;5071286;28;20027;-75
2022/05/24 12:26:07;;;;;;;1.00;0.73;;;;;;;;;;5053394;28;20436;-76
2022/05/24 12:28:36;;;;;;;0.70;0.70;;;;;;;;;;5054462;28;20112;-77
2022/05/24 12:31:07;;;;;;;0.80;0.80;;;;;;;;;;5071917;28;20433;-77
2022/05/24 12:33:50;;;;;;;1.60;0.90;;;;;;;;;;5053944;28;20040;-77
2022/05/24 12:36:32;;;;;;;0.73;0.73;;;;;;;;;;5072114;28;20154;-76
2022/05/24 12:39:03;;;;;;;1.27;0.88;;;;;;;;;;5037048;28;20456;-75
2022/05/24 12:41:38;;;;;;;1.25;0.85;;;;;;;;;;5054049;28;20048;-76
2022/05/24 12:44:19;;;;;;;0.98;0.80;;;;;;;;;;5074643;28;20063;-77
2022/05/24 12:46:57;;;;;;;1.10;0.68;;;;;;;;;;5057728;28;20047;-77
2022/05/24 12:49:37;;;;;;;3.45;0.95;;;;;;;;;;5057247;28;20028;-76
2022/05/24 12:52:13;;;;;;;1.77;0.95;;;;;;;;;;5075221;28;20086;-77
2022/05/24 12:54:44;;;;;;;1.33;0.77;;;;;;;;;;5056791;28;20085;-76
2022/05/24 12:57:23;;;;;;;1.33;0.90;;;;;;;;;;5057061;28;20020;-77
2022/05/24 12:59:53;;;;;;;1.63;0.95;;;;;;;;;;5057147;28;20024;-77
2022/05/24 13:02:28;;;;;;;3.00;0.85;;;;;;;;;;5057130;28;20028;-77
2022/05/24 13:05:10;;;;;;;6.20;0.90;;;;;;;;;;5074821;28;20071;-77
2022/05/24 13:07:59;;;;;;;1.90;0.63;;;;;;;;;;5057389;28;20370;-78
2022/05/24 13:10:36;;;;;;;2.03;1.27;;;;;;;;;;5030381;28;20601;-78
2022/05/24 13:13:02;;;;;;;0.80;0.80;;;;;;;;;;5056757;28;20398;-78
2022/05/24 13:15:33;;;;;;;2.10;0.90;;;;;;;;;;5074602;28;20027;-78
2022/05/24 13:18:03;;;;;;;2.25;0.90;;;;;;;;;;5056983;28;20103;-77
2022/05/24 13:20:44;;;;;;;3.42;0.93;;;;;;;;;;5057525;28;20446;-78
2022/05/24 13:23:13;;;;;;;0.60;0.60;;;;;;;;;;5057011;28;20036;-78
2022/05/24 13:26:11;;;;;;;2.92;1.00;;;;;;;;;;5075033;28;20116;-78
2022/05/24 13:28:55;;;;;;;4.45;0.95;;;;;;;;;;5056788;28;20035;-78
2022/05/24 13:34:23;;;;;;;1.58;0.90;;;;;;;;;;5059772;28;20039;-78
2022/05/24 13:36:53;;;;;;;4.35;1.10;;;;;;;;;;5056549;28;20119;-78
2022/05/24 13:39:23;;;;;;;0.90;0.73;;;;;;;;;;5056467;28;20048;-78
2022/05/24 13:42:01;;;;;;;2.58;1.02;;;;;;;;;;5056438;28;20020;-78
2022/05/24 13:44:38;;;;;;;2.00;0.98;;;;;;;;;;5056876;28;20059;-77
2022/05/24 13:47:09;;;;;;;5.63;0.95;;;;;;;;;;5056777;28;20474;-77
2022/05/24 13:49:43;;;;;;;3.58;1.33;;;;;;;;;;5056553;28;20044;-77
2022/05/24 13:52:38;;;;;;;2.22;0.90;;;;;;;;;;5056404;28;20467;-77
2022/05/24 13:55:31;;;;;;;1.90;0.93;;;;;;;;;;5055386;28;20043;-76
2022/05/24 13:58:15;;;;;;;2.17;0.93;;;;;;;;;;5056739;28;20520;-76
2022/05/24 14:00:51;;;;;;;4.13;0.80;;;;;;;;;;5056401;28;20387;-76
2022/05/24 14:03:26;;;;;;;4.95;0.80;;;;;;;;;;5056602;28;20057;-76
2022/05/24 14:06:11;;;;;;;1.65;0.73;;;;;;;;;;5055972;28;20020;-76
2022/05/24 14:08:39;;;;;;;2.55;0.80;;;;;;;;;;5039261;28;20372;-77
2022/05/24 14:11:15;;;;;;;1.27;0.70;;;;;;;;;;5056126;28;20040;-76
2022/05/24 14:13:41;;;;;;;3.75;0.80;;;;;;;;;;5056058;28;20035;-77
2022/05/24 14:16:07;;;;;;;1.83;0.88;;;;;;;;;;5055917;28;20031;-78
2022/05/24 14:18:33;;;;;;;2.85;0.93;;;;;;;;;;5055796;28;20028;-79
2022/05/24 14:20:58;;;;;;;4.45;0.90;;;;;;;;;;5055965;28;20495;-78
2022/05/24 14:23:26;;;;;;;2.22;0.80;;;;;;;;;;5056100;28;20024;-76
2022/05/24 14:25:51;;;;;;;1.63;0.80;;;;;;;;;;5073857;28;20023;-76
2022/05/24 14:28:17;;;;;;;1.67;0.73;;;;;;;;;;5074036;28;20029;-77
2022/05/24 14:30:44;;;;;;;6.50;0.80;;;;;;;;;;5055732;28;20090;-77
2022/05/24 14:33:16;;;;;;;3.05;0.95;;;;;;;;;;5073615;28;20081;-76
2022/05/24 14:35:42;;;;;;;2.20;0.80;;;;;;;;;;5055762;28;20024;-77
2022/05/24 14:38:08;;;;;;;0.77;0.68;;;;;;;;;;5073863;28;20028;-76
2022/05/24 14:40:38;;;;;;;1.10;0.70;;;;;;;;;;5055373;28;20415;-76
2022/05/24 14:43:08;;;;;;;9.10;0.70;;;;;;;;;;5039579;28;20063;-77
2022/05/24 14:45:34;;;;;;;5.43;0.90;;;;;;;;;;5055691;28;20035;-77
2022/05/24 14:47:59;;;;;;;6.20;1.00;;;;;;;;;;5038687;28;20039;-76
2022/05/24 14:50:25;;;;;;;11.70;1.02;;;;;;;;;;5073364;28;20032;-76
2022/05/24 14:52:50;;;;;;;5.30;0.88;;;;;;;;;;5038436;28;20032;-76
2022/05/24 14:55:22;;;;;;;1.30;0.70;;;;;;;;;;5073113;28;20101;-76
2022/05/24 14:57:48;;;;;;;2.25;0.50;;;;;;;;;;5073276;28;20031;-76
2022/05/24 15:00:14;;;;;;;2.85;0.90;;;;;;;;;;5054994;28;20383;-76
2022/05/24 15:02:40;;;;;;;3.25;0.88;;;;;;;;;;5038437;28;20394;-76
2022/05/24 15:05:08;;;;;;;1.83;0.50;;;;;;;;;;5072805;28;20441;-75
2022/05/24 15:15:47;;;;;;;0.88;0.50;;;;;;;;;;5073737;28;20126;-76
2022/05/24 15:18:12;;;;;;;1.35;0.70;;;;;;;;;;5073610;28;20040;-76
2022/05/24 15:20:40;;;;;;;3.13;0.50;;;;;;;;;;5074107;28;20029;-76
2022/05/24 15:23:06;;;;;;;1.45;0.50;;;;;;;;;;5056394;28;20023;-75
2022/05/24 15:25:35;;;;;;;0.73;0.50;;;;;;;;;;5055164;28;20028;-75
2022/05/24 15:28:01;;;;;;;1.05;0.43;;;;;;;;;;5073079;28;20036;-75
2022/05/24 15:30:27;;;;;;;1.30;0.70;;;;;;;;;;5055119;28;20025;-74
2022/05/24 15:32:54;;;;;;;4.35;0.90;;;;;;;;;;5073390;28;20032;-75
2022/05/24 15:35:19;;;;;;;1.75;0.50;;;;;;;;;;5038062;28;20031;-76
2022/05/24 15:37:45;;;;;;;1.35;0.77;;;;;;;;;;5072479;28;20033;-75
2022/05/24 15:40:12;;;;;;;1.90;0.80;;;;;;;;;;5053498;28;20572;-76
2022/05/24 15:42:37;;;;;;;2.70;0.47;;;;;;;;;;5037964;28;20025;-75
2022/05/24 15:45:04;;;;;;;1.08;0.57;;;;;;;;;;5051881;28;20112;-75
2022/05/24 15:47:29;;;;;;;1.60;0.73;;;;;;;;;;5017308;28;20492;-75